sensor_id;sensor_type;location;lat;lon;timestamp;pressure;altitude;pressure_sealevel;temperature;humidity
23619;BME280;18207;32.078;34.818;2023-03-23T00:00:36;100750.16;;;24.10;43.68
23619;BME280;18207;32.078;34.818;2023-03-23T00:03:09;100745.72;;;24.09;43.90
23619;BME280;18207;32.078;34.818;2023-03-23T00:05:39;100740.47;;;24.07;43.65
23619;BME280;18207;32.078;34.818;2023-03-23T00:08:08;100736.84;;;24.07;43.66
23619;BME280;18207;32.078;34.818;2023-03-23T00:10:39;100739.63;;;24.07;43.78
23619;BME280;18207;32.078;34.818;2023-03-23T00:13:08;100742.44;;;24.07;43.49
23619;BME280;18207;32.078;34.818;2023-03-23T00:15:37;100731.59;;;24.05;43.79
23619;BME280;18207;32.078;34.818;2023-03-23T00:18:10;100732.38;;;24.06;43.80
23619;BME280;18207;32.078;34.818;2023-03-23T00:20:48;100731.94;;;24.04;43.84
23619;BME280;18207;32.078;34.818;2023-03-23T00:23:19;100733.94;;;24.03;44.00
23619;BME280;18207;32.078;34.818;2023-03-23T00:25:51;100738.75;;;24.03;43.81
23619;BME280;18207;32.078;34.818;2023-03-23T00:28:24;100735.94;;;24.03;43.76
23619;BME280;18207;32.078;34.818;2023-03-23T00:30:58;100740.72;;;24.02;43.99
23619;BME280;18207;32.078;34.818;2023-03-23T00:33:31;100733.94;;;24.03;43.95
23619;BME280;18207;32.078;34.818;2023-03-23T00:36:05;100728.69;;;24.02;43.95
23619;BME280;18207;32.078;34.818;2023-03-23T00:38:35;100725.88;;;24.02;43.67
23619;BME280;18207;32.078;34.818;2023-03-23T00:41:05;100736.28;;;24.01;43.64
23619;BME280;18207;32.078;34.818;2023-03-23T00:43:34;100722.25;;;24.01;43.38
23619;BME280;18207;32.078;34.818;2023-03-23T00:46:04;100725.03;;;24.01;43.50
23619;BME280;18207;32.078;34.818;2023-03-23T00:48:38;100730.66;;;24.01;43.73
23619;BME280;18207;32.078;34.818;2023-03-23T00:51:12;100724.25;;;24.01;43.79
23619;BME280;18207;32.078;34.818;2023-03-23T00:53:42;100730.66;;;24.01;44.05
23619;BME280;18207;32.078;34.818;2023-03-23T00:56:10;100725.88;;;24.02;43.70
23619;BME280;18207;32.078;34.818;2023-03-23T00:58:40;100730.66;;;24.01;43.50
23619;BME280;18207;32.078;34.818;2023-03-23T01:01:09;100729.84;;;24.01;43.71
23619;BME280;18207;32.078;34.818;2023-03-23T01:03:40;100727.06;;;24.01;43.66
23619;BME280;18207;32.078;34.818;2023-03-23T01:06:11;100719.44;;;24.01;43.62
23619;BME280;18207;32.078;34.818;2023-03-23T01:08:41;100723.41;;;24.00;43.67
23619;BME280;18207;32.078;34.818;2023-03-23T01:11:15;100734.63;;;24.00;43.65
23619;BME280;18207;32.078;34.818;2023-03-23T01:13:45;100726.22;;;24.00;43.51
23619;BME280;18207;32.078;34.818;2023-03-23T01:16:14;100726.22;;;24.00;43.75
23619;BME280;18207;32.078;34.818;2023-03-23T01:18:44;100721.44;;;24.01;43.94
23619;BME280;18207;32.078;34.818;2023-03-23T01:21:17;100729.84;;;24.01;43.47
23619;BME280;18207;32.078;34.818;2023-03-23T01:23:45;100731.03;;;24.00;43.99
23619;BME280;18207;32.078;34.818;2023-03-23T01:26:18;100731.03;;;24.00;43.77
23619;BME280;18207;32.078;34.818;2023-03-23T01:28:47;100738.63;;;23.99;43.67
23619;BME280;18207;32.078;34.818;2023-03-23T01:31:19;100725.78;;;23.98;43.38
23619;BME280;18207;32.078;34.818;2023-03-23T01:33:51;100733.38;;;23.98;43.47
23619;BME280;18207;32.078;34.818;2023-03-23T01:36:24;100731.75;;;23.97;43.58
23619;BME280;18207;32.078;34.818;2023-03-23T01:38:55;100721.69;;;23.96;43.61
23619;BME280;18207;32.078;34.818;2023-03-23T01:41:25;100723.69;;;23.95;43.34
23619;BME280;18207;32.078;34.818;2023-03-23T01:44:00;100732.91;;;23.96;43.42
23619;BME280;18207;32.078;34.818;2023-03-23T01:46:32;100738.88;;;23.94;43.48
23619;BME280;18207;32.078;34.818;2023-03-23T01:49:09;100730.84;;;23.93;43.57
23619;BME280;18207;32.078;34.818;2023-03-23T01:51:43;100733.97;;;23.91;43.48
23619;BME280;18207;32.078;34.818;2023-03-23T01:54:17;100740.78;;;23.90;43.23
23619;BME280;18207;32.078;34.818;2023-03-23T01:56:59;100738.34;;;23.89;43.34
23619;BME280;18207;32.078;34.818;2023-03-23T01:59:32;100733.88;;;23.88;43.27
23619;BME280;18207;32.078;34.818;2023-03-23T02:02:02;100727.47;;;23.87;43.39
23619;BME280;18207;32.078;34.818;2023-03-23T02:04:34;100728.66;;;23.86;43.35
23619;BME280;18207;32.078;34.818;2023-03-23T02:07:04;100724.22;;;23.85;43.20
23619;BME280;18207;32.078;34.818;2023-03-23T02:09:34;100724.22;;;23.85;43.25
23619;BME280;18207;32.078;34.818;2023-03-23T02:12:04;100721.41;;;23.85;43.29
23619;BME280;18207;32.078;34.818;2023-03-23T02:14:33;100725.75;;;23.83;43.56
23619;BME280;18207;32.078;34.818;2023-03-23T02:17:08;100726.53;;;23.83;43.29
23619;BME280;18207;32.078;34.818;2023-03-23T02:20:22;100720.47;;;23.81;43.47
23619;BME280;18207;32.078;34.818;2023-03-23T02:26:19;100722.00;;;23.79;43.26
23619;BME280;18207;32.078;34.818;2023-03-23T02:29:21;100715.13;;;23.76;43.21
23619;BME280;18207;32.078;34.818;2023-03-23T02:32:14;100712.31;;;23.76;43.22
23619;BME280;18207;32.078;34.818;2023-03-23T02:34:51;100707.88;;;23.75;43.16
23619;BME280;18207;32.078;34.818;2023-03-23T02:37:29;100712.19;;;23.73;42.91
23619;BME280;18207;32.078;34.818;2023-03-23T02:40:07;100704.00;;;23.68;43.01
23619;BME280;18207;32.078;34.818;2023-03-23T02:42:42;100698.31;;;23.64;43.19
23619;BME280;18207;32.078;34.818;2023-03-23T02:45:15;100689.88;;;23.64;43.06
23619;BME280;18207;32.078;34.818;2023-03-23T02:47:47;100686.63;;;23.62;42.96
23619;BME280;18207;32.078;34.818;2023-03-23T02:50:22;100694.69;;;23.64;43.34
23619;BME280;18207;32.078;34.818;2023-03-23T02:52:53;100690.69;;;23.65;42.98
23619;BME280;18207;32.078;34.818;2023-03-23T02:55:27;100685.91;;;23.65;43.32
23619;BME280;18207;32.078;34.818;2023-03-23T02:57:57;100667.91;;;23.66;43.30
23619;BME280;18207;32.078;34.818;2023-03-23T03:00:29;100679.94;;;23.67;42.92
23619;BME280;18207;32.078;34.818;2023-03-23T03:02:58;100671.50;;;23.67;42.84
23619;BME280;18207;32.078;34.818;2023-03-23T03:05:39;100670.34;;;23.68;42.71
23619;BME280;18207;32.078;34.818;2023-03-23T03:08:18;100673.97;;;23.68;42.94
23619;BME280;18207;32.078;34.818;2023-03-23T03:10:55;100681.56;;;23.68;42.97
23619;BME280;18207;32.078;34.818;2023-03-23T03:13:36;100695.88;;;23.63;43.17
23619;BME280;18207;32.078;34.818;2023-03-23T03:16:22;100696.09;;;23.58;43.00
23619;BME280;18207;32.078;34.818;2023-03-23T03:18:57;100691.66;;;23.57;42.69
23619;BME280;18207;32.078;34.818;2023-03-23T03:21:34;100694.84;;;23.55;42.47
23619;BME280;18207;32.078;34.818;2023-03-23T03:24:07;100691.19;;;23.55;42.77
23619;BME280;18207;32.078;34.818;2023-03-23T03:26:41;100672.75;;;23.54;42.62
23619;BME280;18207;32.078;34.818;2023-03-23T03:29:12;100669.97;;;23.54;42.67
23619;BME280;18207;32.078;34.818;2023-03-23T03:31:45;100660.34;;;23.55;42.40
23619;BME280;18207;32.078;34.818;2023-03-23T03:34:16;100658.75;;;23.54;42.43
23619;BME280;18207;32.078;34.818;2023-03-23T03:36:48;100656.75;;;23.54;42.71
23619;BME280;18207;32.078;34.818;2023-03-23T03:39:19;100661.19;;;23.55;42.30
23619;BME280;18207;32.078;34.818;2023-03-23T03:41:49;100671.94;;;23.53;42.34
23619;BME280;18207;32.078;34.818;2023-03-23T03:44:18;100672.75;;;23.54;42.57
23619;BME280;18207;32.078;34.818;2023-03-23T03:46:47;100660.72;;;23.53;42.64
23619;BME280;18207;32.078;34.818;2023-03-23T03:49:16;100677.53;;;23.53;42.25
23619;BME280;18207;32.078;34.818;2023-03-23T03:51:47;100685.59;;;23.55;42.58
23619;BME280;18207;32.078;34.818;2023-03-23T03:54:17;100692.41;;;23.54;42.27
23619;BME280;18207;32.078;34.818;2023-03-23T03:56:46;100693.22;;;23.54;42.11
23619;BME280;18207;32.078;34.818;2023-03-23T03:59:15;100694.38;;;23.53;42.15
23619;BME280;18207;32.078;34.818;2023-03-23T04:01:44;100702.00;;;23.53;41.97
23619;BME280;18207;32.078;34.818;2023-03-23T04:04:12;100705.13;;;23.51;42.34
23619;BME280;18207;32.078;34.818;2023-03-23T04:06:41;100708.78;;;23.52;42.35
23619;BME280;18207;32.078;34.818;2023-03-23T04:09:12;100713.53;;;23.51;42.26
23619;BME280;18207;32.078;34.818;2023-03-23T04:11:41;100710.75;;;23.51;42.44
23619;BME280;18207;32.078;34.818;2023-03-23T04:14:10;100716.34;;;23.51;42.18
23619;BME280;18207;32.078;34.818;2023-03-23T04:16:39;100731.22;;;23.52;42.18
23619;BME280;18207;32.078;34.818;2023-03-23T04:19:10;100738.47;;;23.53;42.25
23619;BME280;18207;32.078;34.818;2023-03-23T04:21:39;100744.88;;;23.53;41.90
23619;BME280;18207;32.078;34.818;2023-03-23T04:24:08;100757.72;;;23.54;42.14
23619;BME280;18207;32.078;34.818;2023-03-23T04:26:39;100764.13;;;23.55;42.13
23619;BME280;18207;32.078;34.818;2023-03-23T04:29:09;100762.53;;;23.54;42.26
23619;BME280;18207;32.078;34.818;2023-03-23T04:31:39;100762.88;;;23.52;41.98
23619;BME280;18207;32.078;34.818;2023-03-23T04:34:12;100771.19;;;23.49;41.95
23619;BME280;18207;32.078;34.818;2023-03-23T04:36:41;100765.47;;;23.45;42.12
23619;BME280;18207;32.078;34.818;2023-03-23T04:39:11;100762.56;;;23.42;41.82
23619;BME280;18207;32.078;34.818;2023-03-23T04:41:42;100758.13;;;23.41;41.80
23619;BME280;18207;32.078;34.818;2023-03-23T04:44:12;100764.91;;;23.40;41.99
23619;BME280;18207;32.078;34.818;2023-03-23T04:46:45;100770.16;;;23.41;42.14
23619;BME280;18207;32.078;34.818;2023-03-23T04:49:16;100766.16;;;23.42;42.21
23619;BME280;18207;32.078;34.818;2023-03-23T04:51:48;100764.19;;;23.43;41.88
23619;BME280;18207;32.078;34.818;2023-03-23T04:54:17;100762.66;;;23.45;41.97
23619;BME280;18207;32.078;34.818;2023-03-23T04:56:48;100762.31;;;23.47;41.91
23619;BME280;18207;32.078;34.818;2023-03-23T04:59:17;100754.34;;;23.49;42.12
23619;BME280;18207;32.078;34.818;2023-03-23T05:01:47;100751.19;;;23.50;42.24
23619;BME280;18207;32.078;34.818;2023-03-23T05:04:16;100750.84;;;23.52;42.05
23619;BME280;18207;32.078;34.818;2023-03-23T05:06:45;100752.91;;;23.55;42.38
23619;BME280;18207;32.078;34.818;2023-03-23T05:09:15;100752.22;;;23.58;42.10
23619;BME280;18207;32.078;34.818;2023-03-23T05:11:44;100743.44;;;23.59;41.82
23619;BME280;18207;32.078;34.818;2023-03-23T05:14:14;100753.97;;;23.62;42.35
23619;BME280;18207;32.078;34.818;2023-03-23T05:16:43;100752.41;;;23.65;41.92
23619;BME280;18207;32.078;34.818;2023-03-23T05:19:15;100741.66;;;23.67;42.08
23619;BME280;18207;32.078;34.818;2023-03-23T05:21:44;100749.38;;;23.70;42.09
23619;BME280;18207;32.078;34.818;2023-03-23T05:24:13;100755.47;;;23.72;42.35
23619;BME280;18207;32.078;34.818;2023-03-23T05:26:42;100762.34;;;23.74;42.06
23619;BME280;18207;32.078;34.818;2023-03-23T05:29:13;100749.97;;;23.75;42.11
23619;BME280;18207;32.078;34.818;2023-03-23T05:31:42;100755.22;;;23.77;41.95
23619;BME280;18207;32.078;34.818;2023-03-23T05:34:11;100751.25;;;23.78;41.78
23619;BME280;18207;32.078;34.818;2023-03-23T05:36:40;100750.88;;;23.79;41.84
23619;BME280;18207;32.078;34.818;2023-03-23T05:39:11;100751.34;;;23.81;41.97
23619;BME280;18207;32.078;34.818;2023-03-23T05:41:43;100750.63;;;23.84;42.14
23619;BME280;18207;32.078;34.818;2023-03-23T05:44:15;100743.47;;;23.87;42.19
23619;BME280;18207;32.078;34.818;2023-03-23T05:46:44;100749.19;;;23.90;41.94
23619;BME280;18207;32.078;34.818;2023-03-23T05:49:13;100743.66;;;23.94;41.98
23619;BME280;18207;32.078;34.818;2023-03-23T05:51:43;100748.25;;;23.98;42.28
23619;BME280;18207;32.078;34.818;2023-03-23T05:54:13;100739.91;;;24.02;42.33
23619;BME280;18207;32.078;34.818;2023-03-23T05:56:42;100737.19;;;24.05;42.14
23619;BME280;18207;32.078;34.818;2023-03-23T05:59:14;100742.53;;;24.10;42.17
23619;BME280;18207;32.078;34.818;2023-03-23T06:01:44;100736.22;;;24.13;42.10
23619;BME280;18207;32.078;34.818;2023-03-23T06:04:13;100734.66;;;24.16;41.96
23619;BME280;18207;32.078;34.818;2023-03-23T06:06:43;100738.41;;;24.19;41.96
23619;BME280;18207;32.078;34.818;2023-03-23T06:09:12;100738.88;;;24.21;42.20
23619;BME280;18207;32.078;34.818;2023-03-23T06:11:41;100737.31;;;24.24;41.69
23619;BME280;18207;32.078;34.818;2023-03-23T06:14:10;100745.03;;;24.27;41.92
23619;BME280;18207;32.078;34.818;2023-03-23T06:16:41;100747.09;;;24.30;41.69
23619;BME280;18207;32.078;34.818;2023-03-23T06:19:10;100733.53;;;24.32;41.75
23619;BME280;18207;32.078;34.818;2023-03-23T06:21:39;100740.78;;;24.33;41.71
23619;BME280;18207;32.078;34.818;2023-03-23T06:24:09;100742.88;;;24.36;41.91
23619;BME280;18207;32.078;34.818;2023-03-23T06:26:39;100740.50;;;24.38;41.77
23619;BME280;18207;32.078;34.818;2023-03-23T06:29:10;100744.59;;;24.40;41.57
23619;BME280;18207;32.078;34.818;2023-03-23T06:31:46;100745.84;;;24.43;41.81
23619;BME280;18207;32.078;34.818;2023-03-23T06:34:16;100748.31;;;24.44;41.66
23619;BME280;18207;32.078;34.818;2023-03-23T06:36:45;100762.84;;;24.46;41.70
23619;BME280;18207;32.078;34.818;2023-03-23T06:39:14;100762.91;;;24.50;41.53
23619;BME280;18207;32.078;34.818;2023-03-23T06:41:42;100766.19;;;24.52;41.57
23619;BME280;18207;32.078;34.818;2023-03-23T06:44:11;100763.84;;;24.54;41.67
23619;BME280;18207;32.078;34.818;2023-03-23T06:46:43;100756.69;;;24.56;41.56
23619;BME280;18207;32.078;34.818;2023-03-23T06:49:12;100772.00;;;24.59;41.71
23619;BME280;18207;32.078;34.818;2023-03-23T06:51:41;100771.66;;;24.60;41.62
23619;BME280;18207;32.078;34.818;2023-03-23T06:54:10;100779.31;;;24.63;41.32
23619;BME280;18207;32.078;34.818;2023-03-23T06:56:40;100774.16;;;24.65;41.60
23619;BME280;18207;32.078;34.818;2023-03-23T06:59:09;100789.47;;;24.68;41.44
23619;BME280;18207;32.078;34.818;2023-03-23T07:01:42;100772.28;;;24.69;41.32
23619;BME280;18207;32.078;34.818;2023-03-23T07:04:10;100781.97;;;24.72;41.52
23619;BME280;18207;32.078;34.818;2023-03-23T07:06:40;100784.41;;;24.73;41.66
23619;BME280;18207;32.078;34.818;2023-03-23T07:09:10;100782.06;;;24.75;41.40
23619;BME280;18207;32.078;34.818;2023-03-23T07:11:38;100789.78;;;24.78;41.22
23619;BME280;18207;32.078;34.818;2023-03-23T07:14:08;100782.97;;;24.79;41.52
23619;BME280;18207;32.078;34.818;2023-03-23T07:16:36;100789.06;;;24.81;41.33
23619;BME280;18207;32.078;34.818;2023-03-23T07:19:07;100780.25;;;24.83;41.03
23619;BME280;18207;32.078;34.818;2023-03-23T07:21:36;100782.69;;;24.84;41.13
23619;BME280;18207;32.078;34.818;2023-03-23T07:24:06;100789.22;;;24.88;41.18
23619;BME280;18207;32.078;34.818;2023-03-23T07:26:35;100778.78;;;24.89;41.14
23619;BME280;18207;32.078;34.818;2023-03-23T07:29:04;100755.94;;;24.90;40.82
23619;BME280;18207;32.078;34.818;2023-03-23T07:31:34;100744.31;;;24.92;41.02
23619;BME280;18207;32.078;34.818;2023-03-23T07:34:06;100730.72;;;24.94;41.05
23619;BME280;18207;32.078;34.818;2023-03-23T07:36:35;100722.75;;;24.96;40.84
23619;BME280;18207;32.078;34.818;2023-03-23T07:39:04;100724.34;;;24.97;40.77
23619;BME280;18207;32.078;34.818;2023-03-23T07:41:34;100735.25;;;24.98;40.68
23619;BME280;18207;32.078;34.818;2023-03-23T07:44:04;100765.81;;;25.00;40.61
23619;BME280;18207;32.078;34.818;2023-03-23T07:46:34;100766.63;;;25.00;40.21
23619;BME280;18207;32.078;34.818;2023-03-23T07:49:03;100780.69;;;25.00;40.28
23619;BME280;18207;32.078;34.818;2023-03-23T07:51:35;100759.84;;;25.01;40.47
23619;BME280;18207;32.078;34.818;2023-03-23T07:54:07;100764.25;;;25.02;40.63
23619;BME280;18207;32.078;34.818;2023-03-23T07:56:37;100770.72;;;25.03;40.54
23619;BME280;18207;32.078;34.818;2023-03-23T07:59:07;100770.34;;;25.04;40.24
23619;BME280;18207;32.078;34.818;2023-03-23T08:01:38;100767.19;;;25.06;40.53
23619;BME280;18207;32.078;34.818;2023-03-23T08:04:07;100766.78;;;25.07;40.46
23619;BME280;18207;32.078;34.818;2023-03-23T08:06:38;100756.81;;;25.09;40.68
23619;BME280;18207;32.078;34.818;2023-03-23T08:09:07;100753.69;;;25.11;40.45
23619;BME280;18207;32.078;34.818;2023-03-23T08:11:37;100749.31;;;25.13;40.44
23619;BME280;18207;32.078;34.818;2023-03-23T08:14:06;100741.34;;;25.15;40.55
23619;BME280;18207;32.078;34.818;2023-03-23T08:16:35;100740.13;;;25.16;40.54
23619;BME280;18207;32.078;34.818;2023-03-23T08:19:04;100734.59;;;25.20;40.51
23619;BME280;18207;32.078;34.818;2023-03-23T08:21:34;100741.47;;;25.22;40.56
23619;BME280;18207;32.078;34.818;2023-03-23T08:24:06;100749.19;;;25.25;40.33
23619;BME280;18207;32.078;34.818;2023-03-23T08:26:35;100746.81;;;25.27;40.35
23619;BME280;18207;32.078;34.818;2023-03-23T08:29:04;100749.69;;;25.31;40.44
23619;BME280;18207;32.078;34.818;2023-03-23T08:31:34;100757.78;;;25.32;40.04
23619;BME280;18207;32.078;34.818;2023-03-23T08:34:05;100764.22;;;25.33;40.26
23619;BME280;18207;32.078;34.818;2023-03-23T08:36:35;100777.94;;;25.34;40.15
23619;BME280;18207;32.078;34.818;2023-03-23T08:39:07;100783.19;;;25.36;40.20
23619;BME280;18207;32.078;34.818;2023-03-23T08:41:36;100771.56;;;25.37;40.13
23619;BME280;18207;32.078;34.818;2023-03-23T08:44:05;100770.03;;;25.40;40.31
23619;BME280;18207;32.078;34.818;2023-03-23T08:46:35;100758.03;;;25.43;40.04
23619;BME280;18207;32.078;34.818;2023-03-23T08:49:05;100752.84;;;25.45;40.11
23619;BME280;18207;32.078;34.818;2023-03-23T08:51:34;100751.28;;;25.47;40.18
23619;BME280;18207;32.078;34.818;2023-03-23T08:54:07;100744.53;;;25.52;40.40
23619;BME280;18207;32.078;34.818;2023-03-23T08:56:36;100749.44;;;25.55;39.98
23619;BME280;18207;32.078;34.818;2023-03-23T08:59:06;100734.66;;;25.58;40.19
23619;BME280;18207;32.078;34.818;2023-03-23T09:01:35;100733.88;;;25.61;40.21
23619;BME280;18207;32.078;34.818;2023-03-23T09:04:05;100732.78;;;25.65;40.22
23619;BME280;18207;32.078;34.818;2023-03-23T09:06:36;100742.13;;;25.69;39.98
23619;BME280;18207;32.078;34.818;2023-03-23T09:09:08;100753.44;;;25.73;40.48
23619;BME280;18207;32.078;34.818;2023-03-23T09:11:37;100750.28;;;25.74;40.17
23619;BME280;18207;32.078;34.818;2023-03-23T09:14:07;100746.75;;;25.77;39.98
23619;BME280;18207;32.078;34.818;2023-03-23T09:16:36;100753.63;;;25.80;40.08
23619;BME280;18207;32.078;34.818;2023-03-23T09:19:07;100762.53;;;25.82;40.10
23619;BME280;18207;32.078;34.818;2023-03-23T09:21:37;100765.78;;;25.84;40.07
23619;BME280;18207;32.078;34.818;2023-03-23T09:24:09;100758.59;;;25.86;40.00
23619;BME280;18207;32.078;34.818;2023-03-23T09:26:38;100747.78;;;25.88;40.05
23619;BME280;18207;32.078;34.818;2023-03-23T09:29:07;100733.31;;;25.90;40.03
23619;BME280;18207;32.078;34.818;2023-03-23T09:31:38;100726.94;;;25.93;40.08
23619;BME280;18207;32.078;34.818;2023-03-23T09:34:08;100722.56;;;25.95;40.09
23619;BME280;18207;32.078;34.818;2023-03-23T09:36:38;100716.19;;;25.98;40.04
23619;BME280;18207;32.078;34.818;2023-03-23T09:39:10;100713.00;;;25.99;40.10
23619;BME280;18207;32.078;34.818;2023-03-23T09:42:07;100720.72;;;26.02;39.94
23619;BME280;18207;32.078;34.818;2023-03-23T09:44:55;100740.88;;;26.04;40.15
23619;BME280;18207;32.078;34.818;2023-03-23T09:47:37;100738.50;;;26.06;40.18
23619;BME280;18207;32.078;34.818;2023-03-23T09:50:12;100743.38;;;26.09;40.24
23619;BME280;18207;32.078;34.818;2023-03-23T09:52:48;100736.19;;;26.12;40.36
23619;BME280;18207;32.078;34.818;2023-03-23T09:55:22;100728.63;;;26.16;40.26
23619;BME280;18207;32.078;34.818;2023-03-23T09:57:56;100724.66;;;26.20;40.25
23619;BME280;18207;32.078;34.818;2023-03-23T10:00:34;100712.66;;;26.23;40.31
23619;BME280;18207;32.078;34.818;2023-03-23T10:03:11;100707.09;;;26.27;40.37
23619;BME280;18207;32.078;34.818;2023-03-23T10:05:45;100711.59;;;26.31;40.21
23619;BME280;18207;32.078;34.818;2023-03-23T10:08:18;100718.47;;;26.34;40.49
23619;BME280;18207;32.078;34.818;2023-03-23T10:10:59;100723.81;;;26.39;40.50
23619;BME280;18207;32.078;34.818;2023-03-23T10:14:05;100726.72;;;26.42;40.45
23619;BME280;18207;32.078;34.818;2023-03-23T10:16:42;100726.00;;;26.45;40.42
23619;BME280;18207;32.078;34.818;2023-03-23T10:19:25;100723.22;;;26.49;40.37
23619;BME280;18207;32.078;34.818;2023-03-23T10:22:03;100713.19;;;26.51;40.32
23619;BME280;18207;32.078;34.818;2023-03-23T10:24:41;100722.53;;;26.55;40.25
23619;BME280;18207;32.078;34.818;2023-03-23T10:27:25;100733.88;;;26.59;40.20
23619;BME280;18207;32.078;34.818;2023-03-23T10:30:03;100727.50;;;26.62;40.30
23619;BME280;18207;32.078;34.818;2023-03-23T10:32:42;100728.72;;;26.64;40.28
23619;BME280;18207;32.078;34.818;2023-03-23T10:35:18;100726.78;;;26.68;40.26
23619;BME280;18207;32.078;34.818;2023-03-23T10:37:53;100727.66;;;26.72;40.61
23619;BME280;18207;32.078;34.818;2023-03-23T10:40:27;100727.72;;;26.76;40.23
23619;BME280;18207;32.078;34.818;2023-03-23T10:43:00;100725.78;;;26.80;39.97
23619;BME280;18207;32.078;34.818;2023-03-23T10:45:31;100720.19;;;26.83;39.97
23619;BME280;18207;32.078;34.818;2023-03-23T10:48:08;100719.84;;;26.88;40.06
23619;BME280;18207;32.078;34.818;2023-03-23T10:50:39;100719.09;;;26.91;40.06
23619;BME280;18207;32.078;34.818;2023-03-23T10:53:16;100709.50;;;26.95;40.03
23619;BME280;18207;32.078;34.818;2023-03-23T10:55:48;100719.63;;;27.00;39.82
23619;BME280;18207;32.078;34.818;2023-03-23T10:58:27;100709.28;;;27.04;39.85
23619;BME280;18207;32.078;34.818;2023-03-23T11:00:59;100698.84;;;27.08;39.79
23619;BME280;18207;32.078;34.818;2023-03-23T11:03:42;100701.72;;;27.11;39.66
23619;BME280;18207;32.078;34.818;2023-03-23T11:06:22;100703.41;;;27.16;39.70
23619;BME280;18207;32.078;34.818;2023-03-23T11:08:56;100702.63;;;27.19;39.83
23619;BME280;18207;32.078;34.818;2023-03-23T11:11:28;100694.19;;;27.22;39.91
23619;BME280;18207;32.078;34.818;2023-03-23T11:14:02;100697.09;;;27.26;39.74
23619;BME280;18207;32.078;34.818;2023-03-23T11:16:45;100697.16;;;27.29;39.56
23619;BME280;18207;32.078;34.818;2023-03-23T11:19:22;100686.28;;;27.31;39.34
23619;BME280;18207;32.078;34.818;2023-03-23T11:21:54;100679.88;;;27.34;39.27
23619;BME280;18207;32.078;34.818;2023-03-23T11:24:26;100679.50;;;27.36;39.26
23619;BME280;18207;32.078;34.818;2023-03-23T11:26:57;100678.72;;;27.39;39.28
23619;BME280;18207;32.078;34.818;2023-03-23T11:29:30;100679.16;;;27.41;39.20
23619;BME280;18207;32.078;34.818;2023-03-23T11:32:06;100676.38;;;27.44;38.96
23619;BME280;18207;32.078;34.818;2023-03-23T11:34:43;100680.41;;;27.47;39.18
23619;BME280;18207;32.078;34.818;2023-03-23T11:37:21;100662.28;;;27.48;39.18
23619;BME280;18207;32.078;34.818;2023-03-23T11:39:58;100654.66;;;27.48;39.27
23619;BME280;18207;32.078;34.818;2023-03-23T11:42:37;100646.19;;;27.48;39.09
23619;BME280;18207;32.078;34.818;2023-03-23T11:45:20;100639.34;;;27.49;39.08
23619;BME280;18207;32.078;34.818;2023-03-23T11:48:01;100640.13;;;27.50;38.91
23619;BME280;18207;32.078;34.818;2023-03-23T11:50:43;100638.94;;;27.51;38.71
23619;BME280;18207;32.078;34.818;2023-03-23T11:53:22;100638.53;;;27.52;38.73
23619;BME280;18207;32.078;34.818;2023-03-23T11:56:06;100643.00;;;27.53;38.69
23619;BME280;18207;32.078;34.818;2023-03-23T11:58:37;100637.34;;;27.53;38.55
23619;BME280;18207;32.078;34.818;2023-03-23T12:01:19;100633.78;;;27.56;38.66
23619;BME280;18207;32.078;34.818;2023-03-23T12:10:35;100626.09;;;27.57;38.46
23619;BME280;18207;32.078;34.818;2023-03-23T12:13:30;100612.81;;;27.57;38.11
23619;BME280;18207;32.078;34.818;2023-03-23T12:16:17;100615.22;;;27.59;38.40
23619;BME280;18207;32.078;34.818;2023-03-23T12:19:00;100615.66;;;27.61;38.28
23619;BME280;18207;32.078;34.818;2023-03-23T12:21:43;100598.31;;;27.62;38.40
23619;BME280;18207;32.078;34.818;2023-03-23T12:24:31;100595.16;;;27.64;38.46
23619;BME280;18207;32.078;34.818;2023-03-23T12:27:13;100578.66;;;27.66;38.53
23619;BME280;18207;32.078;34.818;2023-03-23T12:30:20;100562.13;;;27.68;38.78
23619;BME280;18207;32.078;34.818;2023-03-23T12:33:25;100543.16;;;27.68;38.37
23619;BME280;18207;32.078;34.818;2023-03-23T12:36:11;100537.13;;;27.70;38.60
23619;BME280;18207;32.078;34.818;2023-03-23T12:39:01;100533.53;;;27.73;38.20
23619;BME280;18207;32.078;34.818;2023-03-23T12:41:43;100538.34;;;27.72;38.34
23619;BME280;18207;32.078;34.818;2023-03-23T12:44:24;100546.06;;;27.75;38.32
23619;BME280;18207;32.078;34.818;2023-03-23T12:47:18;100544.03;;;27.75;38.10
23619;BME280;18207;32.078;34.818;2023-03-23T12:49:56;100545.66;;;27.76;37.83
23619;BME280;18207;32.078;34.818;2023-03-23T12:52:33;100558.59;;;27.77;37.94
23619;BME280;18207;32.078;34.818;2023-03-23T12:55:07;100560.22;;;27.78;37.80
23619;BME280;18207;32.078;34.818;2023-03-23T12:57:49;100561.84;;;27.79;37.63
23619;BME280;18207;32.078;34.818;2023-03-23T13:00:25;100568.72;;;27.82;37.80
23619;BME280;18207;32.078;34.818;2023-03-23T13:03:01;100563.88;;;27.82;37.56
23619;BME280;18207;32.078;34.818;2023-03-23T13:05:50;100559.44;;;27.81;37.39
23619;BME280;18207;32.078;34.818;2023-03-23T13:08:29;100555.78;;;27.81;37.49
23619;BME280;18207;32.078;34.818;2023-03-23T13:11:04;100552.59;;;27.82;37.39
23619;BME280;18207;32.078;34.818;2023-03-23T13:13:48;100556.22;;;27.83;37.36
23619;BME280;18207;32.078;34.818;2023-03-23T13:16:41;100551.41;;;27.83;37.05
23619;BME280;18207;32.078;34.818;2023-03-23T13:19:27;100552.59;;;27.82;37.03
23619;BME280;18207;32.078;34.818;2023-03-23T13:22:07;100555.41;;;27.82;36.94